sensor_id;sensor_type;location;lat;lon;timestamp;pressure;altitude;pressure_sealevel;temperature;humidity
38054;BME280;23859;50.672;7.164;2023-04-06T00:02:16;58514.75;;;3.80;85.55
38054;BME280;23859;50.672;7.164;2023-04-06T00:04:42;58520.13;;;3.85;85.70
38054;BME280;23859;50.672;7.164;2023-04-06T00:07:08;58529.22;;;3.89;85.50
38054;BME280;23859;50.672;7.164;2023-04-06T00:09:34;58525.16;;;3.88;86.05
38054;BME280;23859;50.672;7.164;2023-04-06T00:12:00;58525.31;;;3.85;85.99
38054;BME280;23859;50.672;7.164;2023-04-06T00:14:26;58523.38;;;3.83;86.31
38054;BME280;23859;50.672;7.164;2023-04-06T00:16:52;58515.22;;;3.80;85.82
38054;BME280;23859;50.672;7.164;2023-04-06T00:19:18;58513.75;;;3.79;86.75
38054;BME280;23859;50.672;7.164;2023-04-06T00:21:44;58514.41;;;3.77;86.73
38054;BME280;23859;50.672;7.164;2023-04-06T00:24:11;58519.94;;;3.80;86.18
38054;BME280;23859;50.672;7.164;2023-04-06T00:26:37;58517.66;;;3.83;85.21
38054;BME280;23859;50.672;7.164;2023-04-06T00:29:03;58515.88;;;3.78;86.31
38054;BME280;23859;50.672;7.164;2023-04-06T00:31:29;58522.56;;;3.88;87.00
38054;BME280;23859;50.672;7.164;2023-04-06T00:33:55;58511.81;;;3.77;86.04
38054;BME280;23859;50.672;7.164;2023-04-06T00:36:21;58517.81;;;3.80;85.65
38054;BME280;23859;50.672;7.164;2023-04-06T00:38:47;58511.97;;;3.74;86.10
38054;BME280;23859;50.672;7.164;2023-04-06T00:41:14;58516.84;;;3.79;86.38
38054;BME280;23859;50.672;7.164;2023-04-06T00:43:40;58511.16;;;3.71;86.36
38054;BME280;23859;50.672;7.164;2023-04-06T00:46:06;58504.63;;;3.67;87.22
38054;BME280;23859;50.672;7.164;2023-04-06T00:48:32;58496.84;;;3.59;87.65
38054;BME280;23859;50.672;7.164;2023-04-06T00:50:58;58498.47;;;3.58;87.42
38054;BME280;23859;50.672;7.164;2023-04-06T00:53:25;58486.09;;;3.48;88.66
38054;BME280;23859;50.672;7.164;2023-04-06T00:55:51;58496.19;;;3.61;87.24
38054;BME280;23859;50.672;7.164;2023-04-06T00:58:17;58507.91;;;3.73;86.63
38054;BME280;23859;50.672;7.164;2023-04-06T01:00:43;58513.09;;;3.73;87.08
38054;BME280;23859;50.672;7.164;2023-04-06T01:03:09;58487.72;;;3.47;88.19
38054;BME280;23859;50.672;7.164;2023-04-06T01:05:36;58478.28;;;3.40;89.70
38054;BME280;23859;50.672;7.164;2023-04-06T01:08:06;58471.78;;;3.36;90.04
38054;BME280;23859;50.672;7.164;2023-04-06T01:10:32;58471.16;;;3.38;89.26
38054;BME280;23859;50.672;7.164;2023-04-06T01:12:58;58476.16;;;3.32;91.46
38054;BME280;23859;50.672;7.164;2023-04-06T01:15:24;58478.78;;;3.40;89.74
38054;BME280;23859;50.672;7.164;2023-04-06T01:17:51;58477.00;;;3.36;91.16
38054;BME280;23859;50.672;7.164;2023-04-06T01:20:17;58478.13;;;3.34;90.74
38054;BME280;23859;50.672;7.164;2023-04-06T01:22:43;58468.06;;;3.29;92.11
38054;BME280;23859;50.672;7.164;2023-04-06T01:25:10;58469.50;;;3.31;92.03
38054;BME280;23859;50.672;7.164;2023-04-06T01:27:36;58465.28;;;3.24;92.59
38054;BME280;23859;50.672;7.164;2023-04-06T01:30:03;58462.50;;;3.19;92.13
38054;BME280;23859;50.672;7.164;2023-04-06T01:32:29;58463.34;;;3.22;91.29
38054;BME280;23859;50.672;7.164;2023-04-06T01:34:55;58473.56;;;3.32;91.16
38054;BME280;23859;50.672;7.164;2023-04-06T01:37:21;58471.28;;;3.28;91.86
38054;BME280;23859;50.672;7.164;2023-04-06T01:39:47;58469.19;;;3.28;92.42
38054;BME280;23859;50.672;7.164;2023-04-06T01:42:13;58461.38;;;3.20;92.19
38054;BME280;23859;50.672;7.164;2023-04-06T01:44:39;58466.25;;;3.25;91.81
38054;BME280;23859;50.672;7.164;2023-04-06T01:47:05;58449.50;;;3.11;93.10
38054;BME280;23859;50.672;7.164;2023-04-06T01:49:31;58437.81;;;3.07;93.37
38054;BME280;23859;50.672;7.164;2023-04-06T01:51:57;58441.88;;;3.00;94.05
38054;BME280;23859;50.672;7.164;2023-04-06T01:54:23;58442.84;;;3.01;94.19
38054;BME280;23859;50.672;7.164;2023-04-06T01:56:49;58437.16;;;3.01;94.32
38054;BME280;23859;50.672;7.164;2023-04-06T01:59:17;58430.50;;;2.91;94.68
38054;BME280;23859;50.672;7.164;2023-04-06T02:01:43;58435.69;;;2.91;94.92
38054;BME280;23859;50.672;7.164;2023-04-06T02:04:09;58423.00;;;2.86;94.84
38054;BME280;23859;50.672;7.164;2023-04-06T02:06:35;58443.66;;;2.97;94.03
38054;BME280;23859;50.672;7.164;2023-04-06T02:09:01;58429.69;;;2.88;94.82
38054;BME280;23859;50.672;7.164;2023-04-06T02:11:27;58421.41;;;2.87;94.54
38054;BME280;23859;50.672;7.164;2023-04-06T02:13:53;58418.47;;;2.84;95.17
38054;BME280;23859;50.672;7.164;2023-04-06T02:16:20;58414.91;;;2.75;95.39
38054;BME280;23859;50.672;7.164;2023-04-06T02:18:46;58416.69;;;2.72;95.93
38054;BME280;23859;50.672;7.164;2023-04-06T02:21:12;58417.19;;;2.80;95.55
38054;BME280;23859;50.672;7.164;2023-04-06T02:23:38;58405.47;;;2.68;95.98
38054;BME280;23859;50.672;7.164;2023-04-06T02:26:04;58401.09;;;2.64;96.43
38054;BME280;23859;50.672;7.164;2023-04-06T02:28:31;58410.66;;;2.68;96.57
38054;BME280;23859;50.672;7.164;2023-04-06T02:30:57;58413.91;;;2.74;95.75
38054;BME280;23859;50.672;7.164;2023-04-06T02:33:23;58422.53;;;2.78;95.96
38054;BME280;23859;50.672;7.164;2023-04-06T02:35:49;58420.91;;;2.79;95.54
38054;BME280;23859;50.672;7.164;2023-04-06T02:38:15;58411.97;;;2.72;95.81
38054;BME280;23859;50.672;7.164;2023-04-06T02:40:41;58414.09;;;2.72;95.81
38054;BME280;23859;50.672;7.164;2023-04-06T02:43:07;58415.69;;;2.79;95.49
38054;BME280;23859;50.672;7.164;2023-04-06T02:45:33;58413.59;;;2.71;96.00
38054;BME280;23859;50.672;7.164;2023-04-06T02:47:59;58412.13;;;2.70;96.07
38054;BME280;23859;50.672;7.164;2023-04-06T02:50:25;58409.69;;;2.67;96.15
38054;BME280;23859;50.672;7.164;2023-04-06T02:52:52;58403.19;;;2.63;97.39
38054;BME280;23859;50.672;7.164;2023-04-06T02:55:18;58393.28;;;2.56;97.00
38054;BME280;23859;50.672;7.164;2023-04-06T02:57:45;58398.47;;;2.56;97.46
38054;BME280;23859;50.672;7.164;2023-04-06T03:00:12;58401.88;;;2.60;97.72
38054;BME280;23859;50.672;7.164;2023-04-06T03:02:38;58408.72;;;2.66;96.71
38054;BME280;23859;50.672;7.164;2023-04-06T03:05:04;58400.25;;;2.61;96.12
38054;BME280;23859;50.672;7.164;2023-04-06T03:07:31;58403.50;;;2.59;96.44
38054;BME280;23859;50.672;7.164;2023-04-06T03:09:57;58402.84;;;2.61;96.38
38054;BME280;23859;50.672;7.164;2023-04-06T03:12:23;58389.69;;;2.47;96.33
38054;BME280;23859;50.672;7.164;2023-04-06T03:14:49;58391.81;;;2.47;96.04
38054;BME280;23859;50.672;7.164;2023-04-06T03:17:15;58385.97;;;2.49;96.45
38054;BME280;23859;50.672;7.164;2023-04-06T03:19:41;58391.16;;;2.49;96.74
38054;BME280;23859;50.672;7.164;2023-04-06T03:22:07;58385.00;;;2.48;96.87
38054;BME280;23859;50.672;7.164;2023-04-06T03:24:33;58390.50;;;2.51;97.06
38054;BME280;23859;50.672;7.164;2023-04-06T03:26:59;58393.59;;;2.51;96.44
38054;BME280;23859;50.672;7.164;2023-04-06T03:29:26;58383.06;;;2.46;97.02
38054;BME280;23859;50.672;7.164;2023-04-06T03:31:52;58379.63;;;2.42;97.69
38054;BME280;23859;50.672;7.164;2023-04-06T03:34:18;58384.34;;;2.42;98.58
38054;BME280;23859;50.672;7.164;2023-04-06T03:36:45;58384.19;;;2.44;98.46
38054;BME280;23859;50.672;7.164;2023-04-06T03:39:11;58377.69;;;2.40;99.02
38054;BME280;23859;50.672;7.164;2023-04-06T03:41:37;58382.22;;;2.42;99.10
38054;BME280;23859;50.672;7.164;2023-04-06T03:44:05;58381.59;;;2.44;97.91
38054;BME280;23859;50.672;7.164;2023-04-06T03:46:31;58388.56;;;2.41;98.60
38054;BME280;23859;50.672;7.164;2023-04-06T03:48:57;58375.56;;;2.33;98.96
38054;BME280;23859;50.672;7.164;2023-04-06T03:51:23;58370.53;;;2.30;98.61
38054;BME280;23859;50.672;7.164;2023-04-06T03:53:49;58384.66;;;2.37;98.73
38054;BME280;23859;50.672;7.164;2023-04-06T03:56:15;58390.81;;;2.46;97.33
38054;BME280;23859;50.672;7.164;2023-04-06T03:58:41;58369.41;;;2.32;98.16
38054;BME280;23859;50.672;7.164;2023-04-06T04:01:07;58373.94;;;2.34;98.80
38054;BME280;23859;50.672;7.164;2023-04-06T04:03:33;58367.13;;;2.27;98.88
38054;BME280;23859;50.672;7.164;2023-04-06T04:05:59;58372.63;;;2.30;99.95
38054;BME280;23859;50.672;7.164;2023-04-06T04:08:25;58383.38;;;2.41;99.40
38054;BME280;23859;50.672;7.164;2023-04-06T04:10:51;58373.28;;;2.28;99.21
38054;BME280;23859;50.672;7.164;2023-04-06T04:13:17;58358.84;;;2.18;100.00
38054;BME280;23859;50.672;7.164;2023-04-06T04:15:44;58354.78;;;2.17;100.00
38054;BME280;23859;50.672;7.164;2023-04-06T04:18:10;58354.78;;;2.17;100.00
38054;BME280;23859;50.672;7.164;2023-04-06T04:20:36;58353.16;;;2.10;100.00
38054;BME280;23859;50.672;7.164;2023-04-06T04:23:02;58364.19;;;2.24;99.58
38054;BME280;23859;50.672;7.164;2023-04-06T04:25:28;58351.03;;;2.10;99.94
38054;BME280;23859;50.672;7.164;2023-04-06T04:27:54;58353.97;;;2.13;100.00
38054;BME280;23859;50.672;7.164;2023-04-06T04:30:20;58348.13;;;2.07;100.00
38054;BME280;23859;50.672;7.164;2023-04-06T04:32:47;58347.47;;;2.09;100.00
38054;BME280;23859;50.672;7.164;2023-04-06T04:35:13;58360.78;;;2.12;99.34
38054;BME280;23859;50.672;7.164;2023-04-06T04:37:40;58357.53;;;2.14;99.09
38054;BME280;23859;50.672;7.164;2023-04-06T04:40:07;58343.56;;;2.05;99.23
38054;BME280;23859;50.672;7.164;2023-04-06T04:42:33;58342.13;;;2.04;98.43
38054;BME280;23859;50.672;7.164;2023-04-06T04:44:59;58342.13;;;2.04;99.11
38054;BME280;23859;50.672;7.164;2023-04-06T04:47:25;58361.91;;;2.19;99.02
38054;BME280;23859;50.672;7.164;2023-04-06T04:49:51;58349.09;;;2.08;99.04
38054;BME280;23859;50.672;7.164;2023-04-06T04:52:17;58348.59;;;2.08;99.19
38054;BME280;23859;50.672;7.164;2023-04-06T04:54:43;58340.66;;;2.02;99.82
38054;BME280;23859;50.672;7.164;2023-04-06T04:57:09;58348.44;;;2.02;100.00
38054;BME280;23859;50.672;7.164;2023-04-06T04:59:35;58345.69;;;2.05;100.00
38054;BME280;23859;50.672;7.164;2023-04-06T05:02:02;58339.19;;;2.01;100.00
38054;BME280;23859;50.672;7.164;2023-04-06T05:04:28;58347.31;;;2.04;100.00
38054;BME280;23859;50.672;7.164;2023-04-06T05:07:07;58354.78;;;2.17;99.14
38054;BME280;23859;50.672;7.164;2023-04-06T05:09:33;58347.78;;;2.04;99.82
38054;BME280;23859;50.672;7.164;2023-04-06T05:12:00;58345.19;;;2.04;99.60
38054;BME280;23859;50.672;7.164;2023-04-06T05:14:27;58345.03;;;1.99;100.00
38054;BME280;23859;50.672;7.164;2023-04-06T05:16:54;58341.47;;;1.98;100.00
38054;BME280;23859;50.672;7.164;2023-04-06T05:19:20;58347.94;;;2.02;100.00
38054;BME280;23859;50.672;7.164;2023-04-06T05:21:46;58350.22;;;2.07;99.90
38054;BME280;23859;50.672;7.164;2023-04-06T05:24:12;58358.34;;;2.18;99.05
38054;BME280;23859;50.672;7.164;2023-04-06T05:26:38;58355.44;;;2.15;99.07
38054;BME280;23859;50.672;7.164;2023-04-06T05:29:05;58363.72;;;2.23;99.33
38054;BME280;23859;50.672;7.164;2023-04-06T05:31:31;58299.75;;;1.61;98.59
38054;BME280;23859;50.672;7.164;2023-04-06T05:33:57;58363.06;;;2.25;98.98
38054;BME280;23859;50.672;7.164;2023-04-06T05:36:23;58383.69;;;2.36;97.92
38054;BME280;23859;50.672;7.164;2023-04-06T05:38:49;58381.41;;;2.39;98.12
38054;BME280;23859;50.672;7.164;2023-04-06T05:41:16;58389.22;;;2.47;96.83
38054;BME280;23859;50.672;7.164;2023-04-06T05:43:42;58390.84;;;2.54;96.53
38054;BME280;23859;50.672;7.164;2023-04-06T05:46:08;58415.03;;;2.73;95.48
38054;BME280;23859;50.672;7.164;2023-04-06T05:48:34;58405.13;;;2.65;95.75
38054;BME280;23859;50.672;7.164;2023-04-06T05:51:00;58415.03;;;2.73;95.46
38054;BME280;23859;50.672;7.164;2023-04-06T05:53:27;58436.00;;;2.94;94.39
38054;BME280;23859;50.672;7.164;2023-04-06T05:55:54;58457.16;;;3.21;92.64
38054;BME280;23859;50.672;7.164;2023-04-06T05:58:21;58458.78;;;3.12;92.73
38054;BME280;23859;50.672;7.164;2023-04-06T06:00:47;58463.66;;;3.25;92.96
38054;BME280;23859;50.672;7.164;2023-04-06T06:03:13;58494.25;;;3.59;90.31
38054;BME280;23859;50.672;7.164;2023-04-06T06:05:40;58502.38;;;3.62;89.81
38054;BME280;23859;50.672;7.164;2023-04-06T06:08:06;58513.59;;;3.73;89.09
38054;BME280;23859;50.672;7.164;2023-04-06T06:10:32;58569.75;;;4.30;86.27
38054;BME280;23859;50.672;7.164;2023-04-06T06:12:58;58596.78;;;4.55;84.15
38054;BME280;23859;50.672;7.164;2023-04-06T06:15:25;58645.97;;;5.08;81.16
38054;BME280;23859;50.672;7.164;2023-04-06T06:17:51;58640.78;;;5.00;80.07
38054;BME280;23859;50.672;7.164;2023-04-06T06:20:17;58590.09;;;4.61;82.51
38054;BME280;23859;50.672;7.164;2023-04-06T06:22:44;58590.28;;;4.51;83.17
38054;BME280;23859;50.672;7.164;2023-04-06T06:25:10;58589.78;;;4.51;83.40
38054;BME280;23859;50.672;7.164;2023-04-06T06:27:36;58611.63;;;4.75;82.33
38054;BME280;23859;50.672;7.164;2023-04-06T06:30:03;58648.75;;;5.13;80.20
38054;BME280;23859;50.672;7.164;2023-04-06T06:32:29;58643.03;;;4.97;80.33
38054;BME280;23859;50.672;7.164;2023-04-06T06:34:55;58643.72;;;5.11;80.01
38054;BME280;23859;50.672;7.164;2023-04-06T06:37:21;58654.94;;;5.22;78.96
38054;BME280;23859;50.672;7.164;2023-04-06T06:39:47;58664.25;;;5.31;78.11
38054;BME280;23859;50.672;7.164;2023-04-06T06:42:13;58673.03;;;5.40;79.59
38054;BME280;23859;50.672;7.164;2023-04-06T06:44:39;58703.53;;;5.69;76.47
38054;BME280;23859;50.672;7.164;2023-04-06T06:47:05;58729.13;;;5.92;74.84
38054;BME280;23859;50.672;7.164;2023-04-06T06:49:31;58739.44;;;6.02;73.80
38054;BME280;23859;50.672;7.164;2023-04-06T06:51:57;58778.09;;;6.42;72.61
38054;BME280;23859;50.672;7.164;2023-04-06T06:54:23;58797.84;;;6.67;68.44
38054;BME280;23859;50.672;7.164;2023-04-06T06:56:49;58834.56;;;7.04;67.62
38054;BME280;23859;50.672;7.164;2023-04-06T06:59:15;58861.34;;;7.26;66.83
38054;BME280;23859;50.672;7.164;2023-04-06T07:01:42;58875.56;;;7.40;64.87
38054;BME280;23859;50.672;7.164;2023-04-06T07:04:08;58888.47;;;7.59;63.34
38054;BME280;23859;50.672;7.164;2023-04-06T07:06:36;58898.78;;;7.69;63.02
38054;BME280;23859;50.672;7.164;2023-04-06T07:09:03;58925.09;;;7.98;61.46
38054;BME280;23859;50.672;7.164;2023-04-06T07:11:29;58972.19;;;8.38;59.74
38054;BME280;23859;50.672;7.164;2023-04-06T07:13:56;58995.44;;;8.67;58.82
38054;BME280;23859;50.672;7.164;2023-04-06T07:16:22;58980.06;;;8.46;60.74
38054;BME280;23859;50.672;7.164;2023-04-06T07:18:48;58938.97;;;8.10;60.98
38054;BME280;23859;50.672;7.164;2023-04-06T07:21:14;58933.25;;;8.09;61.93
38054;BME280;23859;50.672;7.164;2023-04-06T07:23:41;58959.59;;;8.31;61.78
38054;BME280;23859;50.672;7.164;2023-04-06T07:26:07;58973.19;;;8.39;60.71
38054;BME280;23859;50.672;7.164;2023-04-06T07:28:33;58991.34;;;8.65;60.45
38054;BME280;23859;50.672;7.164;2023-04-06T07:30:59;59011.63;;;8.75;60.04
38054;BME280;23859;50.672;7.164;2023-04-06T07:33:25;59042.88;;;9.18;58.95
38054;BME280;23859;50.672;7.164;2023-04-06T07:35:56;59038.28;;;9.08;59.45
38054;BME280;23859;50.672;7.164;2023-04-06T07:38:22;59059.72;;;9.32;57.57
38054;BME280;23859;50.672;7.164;2023-04-06T07:40:48;59064.81;;;9.34;58.39
38054;BME280;23859;50.672;7.164;2023-04-06T07:43:14;59047.47;;;9.20;58.63
38054;BME280;23859;50.672;7.164;2023-04-06T07:45:41;59072.00;;;9.44;58.59
38054;BME280;23859;50.672;7.164;2023-04-06T07:48:07;59148.69;;;10.14;54.22
38054;BME280;23859;50.672;7.164;2023-04-06T07:50:33;59093.13;;;9.66;54.46
38054;BME280;23859;50.672;7.164;2023-04-06T07:52:59;59139.53;;;10.10;52.00
38054;BME280;23859;50.672;7.164;2023-04-06T07:55:26;59163.13;;;10.34;52.09
38054;BME280;23859;50.672;7.164;2023-04-06T07:57:52;59190.16;;;10.69;50.30
38054;BME280;23859;50.672;7.164;2023-04-06T08:00:18;59198.69;;;10.67;50.19
38054;BME280;23859;50.672;7.164;2023-04-06T08:02:44;59182.13;;;10.56;48.12
38054;BME280;23859;50.672;7.164;2023-04-06T08:05:10;59244.13;;;11.18;48.45
38054;BME280;23859;50.672;7.164;2023-04-06T08:07:37;59302.53;;;11.80;47.99
38054;BME280;23859;50.672;7.164;2023-04-06T08:10:03;59356.53;;;12.37;46.11
38054;BME280;23859;50.672;7.164;2023-04-06T08:12:29;59403.53;;;12.81;45.20
38054;BME280;23859;50.672;7.164;2023-04-06T08:14:55;59397.47;;;12.70;47.50
38054;BME280;23859;50.672;7.164;2023-04-06T08:17:22;59372.47;;;12.50;45.88
38054;BME280;23859;50.672;7.164;2023-04-06T08:19:48;59345.22;;;12.25;46.68
38054;BME280;23859;50.672;7.164;2023-04-06T08:22:15;59381.22;;;12.54;46.07
38054;BME280;23859;50.672;7.164;2023-04-06T08:24:41;59368.41;;;12.41;45.81
38054;BME280;23859;50.672;7.164;2023-04-06T08:27:07;59352.94;;;12.28;47.40
38054;BME280;23859;50.672;7.164;2023-04-06T08:29:33;59370.81;;;12.51;45.82
38054;BME280;23859;50.672;7.164;2023-04-06T08:31:59;59376.47;;;12.46;46.28
38054;BME280;23859;50.672;7.164;2023-04-06T08:34:26;59371.66;;;12.47;46.42
38054;BME280;23859;50.672;7.164;2023-04-06T08:36:52;59398.75;;;12.82;46.18
38054;BME280;23859;50.672;7.164;2023-04-06T08:39:18;59425.06;;;13.06;45.00
38054;BME280;23859;50.672;7.164;2023-04-06T08:41:51;59483.75;;;13.65;44.90
38054;BME280;23859;50.672;7.164;2023-04-06T08:44:18;59539.59;;;14.13;44.72
38054;BME280;23859;50.672;7.164;2023-04-06T08:46:44;59551.75;;;14.28;42.45
38054;BME280;23859;50.672;7.164;2023-04-06T08:49:11;59518.16;;;13.94;43.05
38054;BME280;23859;50.672;7.164;2023-04-06T08:51:38;59582.53;;;14.56;43.02
38054;BME280;23859;50.672;7.164;2023-04-06T08:54:05;59674.28;;;15.51;40.66
38054;BME280;23859;50.672;7.164;2023-04-06T08:56:31;59660.13;;;15.34;41.33
38054;BME280;23859;50.672;7.164;2023-04-06T08:58:57;59674.47;;;15.48;39.91
38054;BME280;23859;50.672;7.164;2023-04-06T09:01:26;59672.19;;;15.43;40.67
38054;BME280;23859;50.672;7.164;2023-04-06T09:03:57;59563.78;;;14.37;41.74
38054;BME280;23859;50.672;7.164;2023-04-06T09:06:24;59599.34;;;14.73;41.83
38054;BME280;23859;50.672;7.164;2023-04-06T09:08:50;59693.09;;;15.70;40.69
38054;BME280;23859;50.672;7.164;2023-04-06T09:11:16;59636.69;;;15.13;41.67
38054;BME280;23859;50.672;7.164;2023-04-06T09:13:55;59618.13;;;14.92;43.66
38054;BME280;23859;50.672;7.164;2023-04-06T09:16:22;59734.25;;;16.16;40.78
38054;BME280;23859;50.672;7.164;2023-04-06T09:18:49;59718.47;;;15.93;41.99
38054;BME280;23859;50.672;7.164;2023-04-06T09:21:19;59774.22;;;16.51;39.40
38054;BME280;23859;50.672;7.164;2023-04-06T09:23:46;59728.00;;;16.07;39.95
38054;BME280;23859;50.672;7.164;2023-04-06T09:26:17;59765.66;;;16.37;40.20
38054;BME280;23859;50.672;7.164;2023-04-06T09:28:57;59749.97;;;16.27;40.18
38054;BME280;23859;50.672;7.164;2023-04-06T09:31:30;59738.38;;;16.18;40.37
38054;BME280;23859;50.672;7.164;2023-04-06T09:33:57;59689.13;;;15.66;40.77
38054;BME280;23859;50.672;7.164;2023-04-06T09:36:31;59632.59;;;15.04;42.77
38054;BME280;23859;50.672;7.164;2023-04-06T09:39:01;59610.72;;;14.84;42.22
38054;BME280;23859;50.672;7.164;2023-04-06T09:41:29;59572.53;;;14.41;42.37
38054;BME280;23859;50.672;7.164;2023-04-06T09:44:09;59562.97;;;14.34;42.01
38054;BME280;23859;50.672;7.164;2023-04-06T09:46:37;59545.81;;;14.22;41.08
38054;BME280;23859;50.672;7.164;2023-04-06T09:49:05;59708.53;;;15.91;41.11
38054;BME280;23859;50.672;7.164;2023-04-06T09:51:40;59810.72;;;16.82;39.08
38054;BME280;23859;50.672;7.164;2023-04-06T09:54:07;59911.53;;;17.94;36.32
38054;BME280;23859;50.672;7.164;2023-04-06T09:59:38;60004.44;;;18.84;35.11
38054;BME280;23859;50.672;7.164;2023-04-06T10:02:13;59841.53;;;17.19;36.64
38054;BME280;23859;50.672;7.164;2023-04-06T10:04:52;59802.91;;;16.80;36.29
38054;BME280;23859;50.672;7.164;2023-04-06T10:07:19;59767.13;;;16.47;37.12
38054;BME280;23859;50.672;7.164;2023-04-06T10:09:47;59693.38;;;15.73;39.52
38054;BME280;23859;50.672;7.164;2023-04-06T10:12:14;59689.75;;;15.72;39.06
38054;BME280;23859;50.672;7.164;2023-04-06T10:14:41;59724.38;;;16.06;37.33
38054;BME280;23859;50.672;7.164;2023-04-06T10:17:08;59680.84;;;15.63;37.56
38054;BME280;23859;50.672;7.164;2023-04-06T10:19:54;59712.53;;;15.87;39.87
38054;BME280;23859;50.672;7.164;2023-04-06T10:22:55;59748.47;;;16.25;36.88
38054;BME280;23859;50.672;7.164;2023-04-06T10:25:32;59744.03;;;16.21;38.07
38054;BME280;23859;50.672;7.164;2023-04-06T10:28:09;59804.59;;;16.79;35.24
38054;BME280;23859;50.672;7.164;2023-04-06T10:30:42;59898.34;;;17.78;34.74
38054;BME280;23859;50.672;7.164;2023-04-06T10:33:20;59817.41;;;17.00;35.50
38054;BME280;23859;50.672;7.164;2023-04-06T10:35:46;59894.75;;;17.69;33.91
38054;BME280;23859;50.672;7.164;2023-04-06T10:38:13;60014.03;;;18.91;32.54
38054;BME280;23859;50.672;7.164;2023-04-06T10:40:41;59956.53;;;18.34;33.43
38054;BME280;23859;50.672;7.164;2023-04-06T10:43:20;59935.69;;;18.13;35.15
38054;BME280;23859;50.672;7.164;2023-04-06T10:45:56;59854.44;;;17.32;33.67
38054;BME280;23859;50.672;7.164;2023-04-06T10:48:22;59846.00;;;17.23;33.69
38054;BME280;23859;50.672;7.164;2023-04-06T10:50:51;59822.53;;;17.02;33.88
38054;BME280;23859;50.672;7.164;2023-04-06T10:53:27;59785.09;;;16.62;34.43
38054;BME280;23859;50.672;7.164;2023-04-06T10:55:55;59819.56;;;16.99;35.08
38054;BME280;23859;50.672;7.164;2023-04-06T10:58:27;59733.25;;;16.15;35.47
38054;BME280;23859;50.672;7.164;2023-04-06T11:00:54;59731.53;;;16.03;35.77
38054;BME280;23859;50.672;7.164;2023-04-06T11:03:21;59720.94;;;15.95;35.62
38054;BME280;23859;50.672;7.164;2023-04-06T11:05:51;59756.59;;;16.31;35.92
38054;BME280;23859;50.672;7.164;2023-04-06T11:08:26;59794.31;;;16.74;34.72
38054;BME280;23859;50.672;7.164;2023-04-06T11:11:11;59807.81;;;16.93;35.25
38054;BME280;23859;50.672;7.164;2023-04-06T11:13:52;59850.63;;;17.25;34.20
38054;BME280;23859;50.672;7.164;2023-04-06T11:16:24;59886.94;;;17.67;34.45
38054;BME280;23859;50.672;7.164;2023-04-06T11:18:53;59796.00;;;16.73;34.33
38054;BME280;23859;50.672;7.164;2023-04-06T11:21:31;59803.22;;;16.83;34.87
38054;BME280;23859;50.672;7.164;2023-04-06T11:24:23;59789.06;;;16.66;34.50
38054;BME280;23859;50.672;7.164;2023-04-06T11:26:51;59743.03;;;16.20;36.35
38054;BME280;23859;50.672;7.164;2023-04-06T11:29:19;59743.88;;;16.15;36.23
38054;BME280;23859;50.672;7.164;2023-04-06T11:31:48;59704.81;;;15.76;36.54
38054;BME280;23859;50.672;7.164;2023-04-06T11:34:18;59704.75;;;15.84;36.39
38054;BME280;23859;50.672;7.164;2023-04-06T11:36:46;59695.19;;;15.77;36.73
38054;BME280;23859;50.672;7.164;2023-04-06T11:39:17;59731.34;;;16.05;36.90
38054;BME280;23859;50.672;7.164;2023-04-06T11:41:48;59740.22;;;16.14;35.83
38054;BME280;23859;50.672;7.164;2023-04-06T11:44:15;59740.91;;;16.12;37.51
38054;BME280;23859;50.672;7.164;2023-04-06T11:46:41;59718.09;;;15.98;36.55
38054;BME280;23859;50.672;7.164;2023-04-06T11:49:16;59786.41;;;16.66;35.81
38054;BME280;23859;50.672;7.164;2023-04-06T11:51:42;59770.25;;;16.47;36.07
38054;BME280;23859;50.672;7.164;2023-04-06T11:54:08;59799.09;;;16.81;35.17
38054;BME280;23859;50.672;7.164;2023-04-06T11:56:34;59886.81;;;17.61;33.47
38054;BME280;23859;50.672;7.164;2023-04-06T11:59:00;59876.72;;;17.54;33.52
38054;BME280;23859;50.672;7.164;2023-04-06T12:01:27;59752.25;;;16.32;34.16
38054;BME280;23859;50.672;7.164;2023-04-06T12:03:53;59820.44;;;16.95;34.96
38054;BME280;23859;50.672;7.164;2023-04-06T12:06:19;59909.91;;;17.87;33.86
38054;BME280;23859;50.672;7.164;2023-04-06T12:08:45;59916.34;;;17.94;33.88
38054;BME280;23859;50.672;7.164;2023-04-06T12:11:12;59877.84;;;17.60;33.71
38054;BME280;23859;50.672;7.164;2023-04-06T12:13:38;59901.78;;;17.82;34.19
38054;BME280;23859;50.672;7.164;2023-04-06T12:16:04;59779.84;;;16.54;34.67
38054;BME280;23859;50.672;7.164;2023-04-06T12:18:31;59804.91;;;16.82;34.23
38054;BME280;23859;50.672;7.164;2023-04-06T12:20:58;59808.19;;;16.88;35.27
38054;BME280;23859;50.672;7.164;2023-04-06T12:23:24;59962.47;;;18.40;33.49
38054;BME280;23859;50.672;7.164;2023-04-06T12:25:50;60004.56;;;18.90;32.09
38054;BME280;23859;50.672;7.164;2023-04-06T12:28:17;59869.31;;;17.46;33.25
38054;BME280;23859;50.672;7.164;2023-04-06T12:30:43;59784.28;;;16.59;33.98
38054;BME280;23859;50.672;7.164;2023-04-06T12:33:09;59869.59;;;17.49;34.24
38054;BME280;23859;50.672;7.164;2023-04-06T12:35:37;59879.69;;;17.57;33.74
38054;BME280;23859;50.672;7.164;2023-04-06T12:38:03;59871.91;;;17.54;34.85
38054;BME280;23859;50.672;7.164;2023-04-06T12:40:29;59863.00;;;17.45;32.83
38054;BME280;23859;50.672;7.164;2023-04-06T12:42:55;59898.03;;;17.75;34.52
38054;BME280;23859;50.672;7.164;2023-04-06T12:45:21;59866.03;;;17.40;33.54
38054;BME280;23859;50.672;7.164;2023-04-06T12:47:47;59829.16;;;17.06;33.14
38054;BME280;23859;50.672;7.164;2023-04-06T12:50:13;59811.16;;;16.91;33.83
38054;BME280;23859;50.672;7.164;2023-04-06T12:52:40;59818.75;;;16.96;34.86
38054;BME280;23859;50.672;7.164;2023-04-06T12:55:06;59821.06;;;17.01;34.05
38054;BME280;23859;50.672;7.164;2023-04-06T12:57:32;59823.34;;;17.06;33.83
38054;BME280;23859;50.672;7.164;2023-04-06T12:59:58;59808.69;;;16.88;34.18
38054;BME280;23859;50.672;7.164;2023-04-06T13:02:25;59804.03;;;16.86;35.01
38054;BME280;23859;50.672;7.164;2023-04-06T13:04:51;59800.09;;;16.82;34.54
38054;BME280;23859;50.672;7.164;2023-04-06T13:07:18;59776.88;;;16.51;36.08
38054;BME280;23859;50.672;7.164;2023-04-06T13:09:44;59763.59;;;16.51;36.63